sensor_id;sensor_type;location;lat;lon;timestamp;temperature;humidity
37002;DHT22;22913;51.910;8.374;2023-05-16T00:00:58;13.70;99.90
37002;DHT22;22913;51.910;8.374;2023-05-16T00:03:44;13.70;99.90
37002;DHT22;22913;51.910;8.374;2023-05-16T00:06:30;13.60;99.90
37002;DHT22;22913;51.910;8.374;2023-05-16T00:09:16;13.70;99.90
37002;DHT22;22913;51.910;8.374;2023-05-16T00:12:02;13.70;99.90
37002;DHT22;22913;51.910;8.374;2023-05-16T00:14:51;13.60;99.90
37002;DHT22;22913;51.910;8.374;2023-05-16T00:17:36;13.60;99.90
37002;DHT22;22913;51.910;8.374;2023-05-16T00:20:22;13.60;99.90
37002;DHT22;22913;51.910;8.374;2023-05-16T00:23:08;13.60;99.90
37002;DHT22;22913;51.910;8.374;2023-05-16T00:25:54;13.60;99.90
37002;DHT22;22913;51.910;8.374;2023-05-16T00:28:40;13.60;99.90
37002;DHT22;22913;51.910;8.374;2023-05-16T00:31:27;13.50;99.90
37002;DHT22;22913;51.910;8.374;2023-05-16T00:34:13;13.40;99.90
37002;DHT22;22913;51.910;8.374;2023-05-16T00:36:59;13.40;99.90
37002;DHT22;22913;51.910;8.374;2023-05-16T00:39:45;13.30;99.90
37002;DHT22;22913;51.910;8.374;2023-05-16T00:42:31;13.30;99.90
37002;DHT22;22913;51.910;8.374;2023-05-16T00:45:17;13.30;99.90
37002;DHT22;22913;51.910;8.374;2023-05-16T00:48:04;13.30;99.90
37002;DHT22;22913;51.910;8.374;2023-05-16T00:50:50;13.30;99.90
37002;DHT22;22913;51.910;8.374;2023-05-16T00:53:36;13.30;99.90
37002;DHT22;22913;51.910;8.374;2023-05-16T00:56:22;13.20;99.90
37002;DHT22;22913;51.910;8.374;2023-05-16T00:59:08;13.30;99.90
37002;DHT22;22913;51.910;8.374;2023-05-16T01:01:54;13.30;99.90
37002;DHT22;22913;51.910;8.374;2023-05-16T01:04:42;13.30;99.90
37002;DHT22;22913;51.910;8.374;2023-05-16T01:07:28;13.20;99.90
37002;DHT22;22913;51.910;8.374;2023-05-16T01:10:14;13.20;99.90
37002;DHT22;22913;51.910;8.374;2023-05-16T01:13:17;13.20;99.90
37002;DHT22;22913;51.910;8.374;2023-05-16T01:16:10;13.20;99.90
37002;DHT22;22913;51.910;8.374;2023-05-16T01:19:06;13.20;99.90
37002;DHT22;22913;51.910;8.374;2023-05-16T01:22:02;13.20;99.90
37002;DHT22;22913;51.910;8.374;2023-05-16T01:25:03;13.10;99.90
37002;DHT22;22913;51.910;8.374;2023-05-16T01:27:51;13.10;99.90
37002;DHT22;22913;51.910;8.374;2023-05-16T01:30:39;13.00;99.90
37002;DHT22;22913;51.910;8.374;2023-05-16T01:33:25;13.10;99.90
37002;DHT22;22913;51.910;8.374;2023-05-16T01:36:19;13.10;99.90
37002;DHT22;22913;51.910;8.374;2023-05-16T01:39:11;13.00;99.90
37002;DHT22;22913;51.910;8.374;2023-05-16T01:42:03;13.00;99.90
37002;DHT22;22913;51.910;8.374;2023-05-16T01:44:55;13.00;99.90
37002;DHT22;22913;51.910;8.374;2023-05-16T01:48:00;13.00;99.90
37002;DHT22;22913;51.910;8.374;2023-05-16T01:50:51;13.00;99.90
37002;DHT22;22913;51.910;8.374;2023-05-16T01:53:39;13.10;99.90
37002;DHT22;22913;51.910;8.374;2023-05-16T01:56:27;13.00;99.90
37002;DHT22;22913;51.910;8.374;2023-05-16T01:59:13;13.00;99.90
37002;DHT22;22913;51.910;8.374;2023-05-16T02:02:01;13.00;99.90
37002;DHT22;22913;51.910;8.374;2023-05-16T02:04:47;13.00;99.90
37002;DHT22;22913;51.910;8.374;2023-05-16T02:07:33;12.90;99.90
37002;DHT22;22913;51.910;8.374;2023-05-16T02:10:19;12.80;99.90
37002;DHT22;22913;51.910;8.374;2023-05-16T02:13:05;12.70;99.90
37002;DHT22;22913;51.910;8.374;2023-05-16T02:15:52;12.70;99.90
37002;DHT22;22913;51.910;8.374;2023-05-16T02:18:39;12.50;99.90
37002;DHT22;22913;51.910;8.374;2023-05-16T02:21:25;12.30;99.90
37002;DHT22;22913;51.910;8.374;2023-05-16T02:24:10;12.30;99.90
37002;DHT22;22913;51.910;8.374;2023-05-16T02:26:56;12.20;99.90
37002;DHT22;22913;51.910;8.374;2023-05-16T02:29:42;12.20;99.90
37002;DHT22;22913;51.910;8.374;2023-05-16T02:32:28;12.10;99.90
37002;DHT22;22913;51.910;8.374;2023-05-16T02:35:15;12.00;99.90
37002;DHT22;22913;51.910;8.374;2023-05-16T02:38:00;11.90;99.90
37002;DHT22;22913;51.910;8.374;2023-05-16T02:40:46;11.90;99.90
37002;DHT22;22913;51.910;8.374;2023-05-16T02:43:32;11.80;99.90
37002;DHT22;22913;51.910;8.374;2023-05-16T02:46:23;11.80;99.90
37002;DHT22;22913;51.910;8.374;2023-05-16T02:49:09;11.70;99.90
37002;DHT22;22913;51.910;8.374;2023-05-16T02:51:57;11.70;99.90
37002;DHT22;22913;51.910;8.374;2023-05-16T02:54:43;11.70;99.90
37002;DHT22;22913;51.910;8.374;2023-05-16T02:57:29;11.70;99.90
37002;DHT22;22913;51.910;8.374;2023-05-16T03:00:15;11.60;99.90
37002;DHT22;22913;51.910;8.374;2023-05-16T03:03:01;11.60;99.90
37002;DHT22;22913;51.910;8.374;2023-05-16T03:05:47;11.70;99.90
37002;DHT22;22913;51.910;8.374;2023-05-16T03:08:35;11.70;99.90
37002;DHT22;22913;51.910;8.374;2023-05-16T03:11:21;11.80;99.90
37002;DHT22;22913;51.910;8.374;2023-05-16T03:14:08;11.70;99.90
37002;DHT22;22913;51.910;8.374;2023-05-16T03:16:54;11.70;99.90
37002;DHT22;22913;51.910;8.374;2023-05-16T03:19:40;11.70;99.90
37002;DHT22;22913;51.910;8.374;2023-05-16T03:22:26;11.60;99.90
37002;DHT22;22913;51.910;8.374;2023-05-16T03:25:13;11.60;99.90
37002;DHT22;22913;51.910;8.374;2023-05-16T03:27:58;11.60;99.90
37002;DHT22;22913;51.910;8.374;2023-05-16T03:30:45;11.60;99.90
37002;DHT22;22913;51.910;8.374;2023-05-16T03:33:31;11.50;99.90
37002;DHT22;22913;51.910;8.374;2023-05-16T03:36:17;11.50;99.90
37002;DHT22;22913;51.910;8.374;2023-05-16T03:39:03;11.50;99.90
37002;DHT22;22913;51.910;8.374;2023-05-16T03:41:50;11.50;99.90
37002;DHT22;22913;51.910;8.374;2023-05-16T03:44:39;11.50;99.90
37002;DHT22;22913;51.910;8.374;2023-05-16T03:47:25;11.40;99.90
37002;DHT22;22913;51.910;8.374;2023-05-16T03:50:14;11.40;99.90
37002;DHT22;22913;51.910;8.374;2023-05-16T03:53:00;11.30;99.90
37002;DHT22;22913;51.910;8.374;2023-05-16T03:55:46;11.30;99.90
37002;DHT22;22913;51.910;8.374;2023-05-16T03:58:34;11.30;99.90
37002;DHT22;22913;51.910;8.374;2023-05-16T04:01:20;11.30;99.90
37002;DHT22;22913;51.910;8.374;2023-05-16T04:04:05;11.30;99.90
37002;DHT22;22913;51.910;8.374;2023-05-16T04:06:51;11.40;99.90
37002;DHT22;22913;51.910;8.374;2023-05-16T04:09:37;11.30;99.90
37002;DHT22;22913;51.910;8.374;2023-05-16T04:12:23;11.30;99.90
37002;DHT22;22913;51.910;8.374;2023-05-16T04:15:10;11.20;99.90
37002;DHT22;22913;51.910;8.374;2023-05-16T04:17:55;11.20;99.90
37002;DHT22;22913;51.910;8.374;2023-05-16T04:20:41;11.20;99.90
37002;DHT22;22913;51.910;8.374;2023-05-16T04:23:27;11.20;99.90
37002;DHT22;22913;51.910;8.374;2023-05-16T04:26:13;11.10;99.90
37002;DHT22;22913;51.910;8.374;2023-05-16T04:28:58;11.10;99.90
37002;DHT22;22913;51.910;8.374;2023-05-16T04:31:45;11.00;99.90
37002;DHT22;22913;51.910;8.374;2023-05-16T04:34:31;11.00;99.90
37002;DHT22;22913;51.910;8.374;2023-05-16T04:37:17;11.00;99.90
37002;DHT22;22913;51.910;8.374;2023-05-16T04:40:02;10.90;99.90
37002;DHT22;22913;51.910;8.374;2023-05-16T04:42:49;11.00;99.90
37002;DHT22;22913;51.910;8.374;2023-05-16T04:45:34;11.00;99.90
37002;DHT22;22913;51.910;8.374;2023-05-16T04:48:21;11.00;99.90
37002;DHT22;22913;51.910;8.374;2023-05-16T04:51:06;11.00;99.90
37002;DHT22;22913;51.910;8.374;2023-05-16T04:53:52;11.10;99.90
37002;DHT22;22913;51.910;8.374;2023-05-16T04:56:37;11.00;99.90
37002;DHT22;22913;51.910;8.374;2023-05-16T04:59:22;10.90;99.90
37002;DHT22;22913;51.910;8.374;2023-05-16T05:02:07;11.00;99.90
37002;DHT22;22913;51.910;8.374;2023-05-16T05:04:54;11.00;99.90
37002;DHT22;22913;51.910;8.374;2023-05-16T05:07:39;11.00;99.90
37002;DHT22;22913;51.910;8.374;2023-05-16T05:10:25;10.90;99.90
37002;DHT22;22913;51.910;8.374;2023-05-16T05:13:11;10.90;99.90
37002;DHT22;22913;51.910;8.374;2023-05-16T05:15:57;10.90;99.90
37002;DHT22;22913;51.910;8.374;2023-05-16T05:18:42;10.90;99.90
37002;DHT22;22913;51.910;8.374;2023-05-16T05:21:30;10.80;99.90
37002;DHT22;22913;51.910;8.374;2023-05-16T05:24:15;10.80;99.90
37002;DHT22;22913;51.910;8.374;2023-05-16T05:27:00;10.80;99.90
37002;DHT22;22913;51.910;8.374;2023-05-16T05:29:46;10.80;99.90
37002;DHT22;22913;51.910;8.374;2023-05-16T05:32:32;10.80;99.90
37002;DHT22;22913;51.910;8.374;2023-05-16T05:35:17;10.90;99.90
37002;DHT22;22913;51.910;8.374;2023-05-16T05:38:05;10.90;99.90
37002;DHT22;22913;51.910;8.374;2023-05-16T05:40:50;10.90;99.90
37002;DHT22;22913;51.910;8.374;2023-05-16T05:43:36;11.00;99.90
37002;DHT22;22913;51.910;8.374;2023-05-16T05:46:21;10.90;99.90
37002;DHT22;22913;51.910;8.374;2023-05-16T05:49:06;10.90;99.90
37002;DHT22;22913;51.910;8.374;2023-05-16T05:51:52;10.90;99.90
37002;DHT22;22913;51.910;8.374;2023-05-16T05:54:38;10.80;99.90
37002;DHT22;22913;51.910;8.374;2023-05-16T05:57:24;10.90;99.90
37002;DHT22;22913;51.910;8.374;2023-05-16T06:00:10;10.90;99.90
37002;DHT22;22913;51.910;8.374;2023-05-16T06:02:55;10.90;99.90
37002;DHT22;22913;51.910;8.374;2023-05-16T06:05:41;10.80;99.90
37002;DHT22;22913;51.910;8.374;2023-05-16T06:08:26;10.80;99.90
37002;DHT22;22913;51.910;8.374;2023-05-16T06:11:12;10.80;99.90
37002;DHT22;22913;51.910;8.374;2023-05-16T06:13:58;10.80;99.90
37002;DHT22;22913;51.910;8.374;2023-05-16T06:16:43;10.90;99.90
37002;DHT22;22913;51.910;8.374;2023-05-16T06:19:29;10.90;99.90
37002;DHT22;22913;51.910;8.374;2023-05-16T06:22:14;11.00;99.90
37002;DHT22;22913;51.910;8.374;2023-05-16T06:24:59;11.00;99.90
37002;DHT22;22913;51.910;8.374;2023-05-16T06:27:45;11.10;99.90
37002;DHT22;22913;51.910;8.374;2023-05-16T06:30:31;11.30;99.90
37002;DHT22;22913;51.910;8.374;2023-05-16T06:33:16;11.30;99.90
37002;DHT22;22913;51.910;8.374;2023-05-16T06:36:01;11.50;99.90
37002;DHT22;22913;51.910;8.374;2023-05-16T06:38:46;11.50;99.90
37002;DHT22;22913;51.910;8.374;2023-05-16T06:41:32;11.50;99.90
37002;DHT22;22913;51.910;8.374;2023-05-16T06:44:19;11.50;99.90
37002;DHT22;22913;51.910;8.374;2023-05-16T06:47:04;11.50;99.90
37002;DHT22;22913;51.910;8.374;2023-05-16T06:49:50;11.40;99.90
37002;DHT22;22913;51.910;8.374;2023-05-16T06:52:35;11.30;99.90
37002;DHT22;22913;51.910;8.374;2023-05-16T06:55:21;11.40;99.90
37002;DHT22;22913;51.910;8.374;2023-05-16T06:58:07;11.40;99.90
37002;DHT22;22913;51.910;8.374;2023-05-16T07:00:54;11.50;99.90
37002;DHT22;22913;51.910;8.374;2023-05-16T07:03:39;11.50;99.90
37002;DHT22;22913;51.910;8.374;2023-05-16T07:06:24;11.50;99.90
37002;DHT22;22913;51.910;8.374;2023-05-16T07:09:10;11.60;99.90
37002;DHT22;22913;51.910;8.374;2023-05-16T07:11:55;11.50;99.90
37002;DHT22;22913;51.910;8.374;2023-05-16T07:14:41;11.60;99.90
37002;DHT22;22913;51.910;8.374;2023-05-16T07:17:29;11.60;99.90
37002;DHT22;22913;51.910;8.374;2023-05-16T07:20:14;11.50;99.90
37002;DHT22;22913;51.910;8.374;2023-05-16T07:23:00;11.50;99.90
37002;DHT22;22913;51.910;8.374;2023-05-16T07:25:45;11.50;99.90
37002;DHT22;22913;51.910;8.374;2023-05-16T07:28:31;11.60;99.90
37002;DHT22;22913;51.910;8.374;2023-05-16T07:31:17;11.60;99.90
37002;DHT22;22913;51.910;8.374;2023-05-16T07:34:04;11.70;99.90
37002;DHT22;22913;51.910;8.374;2023-05-16T07:36:51;11.90;99.90
37002;DHT22;22913;51.910;8.374;2023-05-16T07:39:36;12.00;99.90
37002;DHT22;22913;51.910;8.374;2023-05-16T07:42:22;12.10;99.90
37002;DHT22;22913;51.910;8.374;2023-05-16T07:45:08;12.20;99.90
37002;DHT22;22913;51.910;8.374;2023-05-16T07:47:53;12.30;99.90
37002;DHT22;22913;51.910;8.374;2023-05-16T07:50:41;12.30;99.90
37002;DHT22;22913;51.910;8.374;2023-05-16T07:53:27;12.40;99.90
37002;DHT22;22913;51.910;8.374;2023-05-16T07:56:12;12.40;99.90
37002;DHT22;22913;51.910;8.374;2023-05-16T07:58:58;12.50;99.90
37002;DHT22;22913;51.910;8.374;2023-05-16T08:01:44;12.60;99.90
37002;DHT22;22913;51.910;8.374;2023-05-16T08:04:29;12.60;99.90
37002;DHT22;22913;51.910;8.374;2023-05-16T08:07:16;12.50;99.90
37002;DHT22;22913;51.910;8.374;2023-05-16T08:10:02;12.40;99.90
37002;DHT22;22913;51.910;8.374;2023-05-16T08:12:48;12.40;99.90
37002;DHT22;22913;51.910;8.374;2023-05-16T08:15:33;12.40;99.90
37002;DHT22;22913;51.910;8.374;2023-05-16T08:18:19;12.60;99.90
37002;DHT22;22913;51.910;8.374;2023-05-16T08:21:05;12.60;99.90
37002;DHT22;22913;51.910;8.374;2023-05-16T08:23:52;12.80;99.90
37002;DHT22;22913;51.910;8.374;2023-05-16T08:26:37;12.90;99.90
37002;DHT22;22913;51.910;8.374;2023-05-16T08:29:23;13.10;99.90
37002;DHT22;22913;51.910;8.374;2023-05-16T08:32:08;13.10;99.90
37002;DHT22;22913;51.910;8.374;2023-05-16T08:34:54;13.30;99.90
37002;DHT22;22913;51.910;8.374;2023-05-16T08:37:40;13.40;99.90
37002;DHT22;22913;51.910;8.374;2023-05-16T08:40:27;13.40;99.90
37002;DHT22;22913;51.910;8.374;2023-05-16T08:43:13;13.30;99.90
37002;DHT22;22913;51.910;8.374;2023-05-16T08:45:59;13.30;99.90
37002;DHT22;22913;51.910;8.374;2023-05-16T08:48:45;13.20;99.90
37002;DHT22;22913;51.910;8.374;2023-05-16T08:51:31;13.40;99.90
37002;DHT22;22913;51.910;8.374;2023-05-16T08:54:18;13.50;99.90
37002;DHT22;22913;51.910;8.374;2023-05-16T08:57:05;13.60;99.90
37002;DHT22;22913;51.910;8.374;2023-05-16T08:59:51;13.60;99.90
37002;DHT22;22913;51.910;8.374;2023-05-16T09:02:37;13.70;99.90
37002;DHT22;22913;51.910;8.374;2023-05-16T09:05:23;13.80;99.90
37002;DHT22;22913;51.910;8.374;2023-05-16T09:08:09;14.00;99.90
37002;DHT22;22913;51.910;8.374;2023-05-16T09:10:54;14.20;99.90
37002;DHT22;22913;51.910;8.374;2023-05-16T09:13:42;14.30;99.90
37002;DHT22;22913;51.910;8.374;2023-05-16T09:16:27;14.40;99.90
37002;DHT22;22913;51.910;8.374;2023-05-16T09:19:13;14.50;99.90
37002;DHT22;22913;51.910;8.374;2023-05-16T09:22:01;14.40;99.90
37002;DHT22;22913;51.910;8.374;2023-05-16T09:24:47;14.40;99.90
37002;DHT22;22913;51.910;8.374;2023-05-16T09:27:33;14.40;99.90
37002;DHT22;22913;51.910;8.374;2023-05-16T09:30:22;14.60;99.90
37002;DHT22;22913;51.910;8.374;2023-05-16T09:33:08;14.80;99.90
37002;DHT22;22913;51.910;8.374;2023-05-16T09:35:55;14.90;99.90
37002;DHT22;22913;51.910;8.374;2023-05-16T09:38:41;14.90;99.90
37002;DHT22;22913;51.910;8.374;2023-05-16T09:41:27;14.70;99.90
37002;DHT22;22913;51.910;8.374;2023-05-16T09:44:12;14.80;99.90
37002;DHT22;22913;51.910;8.374;2023-05-16T09:46:59;14.90;99.90
37002;DHT22;22913;51.910;8.374;2023-05-16T09:49:46;14.80;99.90
37002;DHT22;22913;51.910;8.374;2023-05-16T09:52:32;14.80;99.90
37002;DHT22;22913;51.910;8.374;2023-05-16T09:55:18;14.90;99.90
37002;DHT22;22913;51.910;8.374;2023-05-16T09:58:03;15.10;99.90
37002;DHT22;22913;51.910;8.374;2023-05-16T10:00:49;15.20;99.90
37002;DHT22;22913;51.910;8.374;2023-05-16T10:03:39;15.30;99.90
37002;DHT22;22913;51.910;8.374;2023-05-16T10:06:25;15.20;99.90
37002;DHT22;22913;51.910;8.374;2023-05-16T10:09:11;15.10;99.90
37002;DHT22;22913;51.910;8.374;2023-05-16T10:11:57;15.10;99.90
37002;DHT22;22913;51.910;8.374;2023-05-16T10:14:46;15.20;99.90
37002;DHT22;22913;51.910;8.374;2023-05-16T10:17:34;15.40;99.90
37002;DHT22;22913;51.910;8.374;2023-05-16T10:20:22;15.70;99.90
37002;DHT22;22913;51.910;8.374;2023-05-16T10:23:12;16.00;99.90
37002;DHT22;22913;51.910;8.374;2023-05-16T10:26:03;16.30;99.90
37002;DHT22;22913;51.910;8.374;2023-05-16T10:28:50;16.60;99.90
37002;DHT22;22913;51.910;8.374;2023-05-16T10:31:37;16.80;99.90
37002;DHT22;22913;51.910;8.374;2023-05-16T10:34:23;16.90;99.90
37002;DHT22;22913;51.910;8.374;2023-05-16T10:37:10;16.80;99.90
37002;DHT22;22913;51.910;8.374;2023-05-16T10:39:56;16.50;99.90
37002;DHT22;22913;51.910;8.374;2023-05-16T10:42:44;16.40;99.90
37002;DHT22;22913;51.910;8.374;2023-05-16T10:45:39;16.50;99.90
37002;DHT22;22913;51.910;8.374;2023-05-16T10:48:30;16.60;99.90
37002;DHT22;22913;51.910;8.374;2023-05-16T10:51:35;16.80;99.90
37002;DHT22;22913;51.910;8.374;2023-05-16T10:54:33;17.00;99.90
37002;DHT22;22913;51.910;8.374;2023-05-16T10:57:22;17.10;99.90
37002;DHT22;22913;51.910;8.374;2023-05-16T11:00:21;17.30;99.90
37002;DHT22;22913;51.910;8.374;2023-05-16T11:03:21;17.20;99.90
37002;DHT22;22913;51.910;8.374;2023-05-16T11:06:08;16.90;99.90
37002;DHT22;22913;51.910;8.374;2023-05-16T11:09:03;17.00;99.90
37002;DHT22;22913;51.910;8.374;2023-05-16T11:11:56;17.10;99.90
37002;DHT22;22913;51.910;8.374;2023-05-16T11:14:42;17.50;99.90
37002;DHT22;22913;51.910;8.374;2023-05-16T11:17:38;17.80;99.90
37002;DHT22;22913;51.910;8.374;2023-05-16T11:20:25;18.20;99.90
37002;DHT22;22913;51.910;8.374;2023-05-16T11:23:22;18.50;99.90
37002;DHT22;22913;51.910;8.374;2023-05-16T11:26:08;18.80;99.90
37002;DHT22;22913;51.910;8.374;2023-05-16T11:28:55;18.80;99.90
37002;DHT22;22913;51.910;8.374;2023-05-16T11:31:41;19.10;99.90
37002;DHT22;22913;51.910;8.374;2023-05-16T11:34:26;19.20;99.90
37002;DHT22;22913;51.910;8.374;2023-05-16T11:37:12;19.30;99.90
37002;DHT22;22913;51.910;8.374;2023-05-16T11:39:58;19.10;99.90
37002;DHT22;22913;51.910;8.374;2023-05-16T11:42:44;19.10;99.90
37002;DHT22;22913;51.910;8.374;2023-05-16T11:45:32;19.10;99.90
37002;DHT22;22913;51.910;8.374;2023-05-16T11:48:17;19.10;99.90
37002;DHT22;22913;51.910;8.374;2023-05-16T11:51:02;19.40;99.90
37002;DHT22;22913;51.910;8.374;2023-05-16T11:53:49;19.50;99.90
37002;DHT22;22913;51.910;8.374;2023-05-16T11:56:35;19.80;99.90
37002;DHT22;22913;51.910;8.374;2023-05-16T11:59:21;19.90;99.90
37002;DHT22;22913;51.910;8.374;2023-05-16T12:02:09;19.90;99.90
37002;DHT22;22913;51.910;8.374;2023-05-16T12:04:54;20.10;99.90
37002;DHT22;22913;51.910;8.374;2023-05-16T12:07:39;20.50;99.90
37002;DHT22;22913;51.910;8.374;2023-05-16T12:10:25;20.80;99.90
37002;DHT22;22913;51.910;8.374;2023-05-16T12:13:11;20.50;99.90
37002;DHT22;22913;51.910;8.374;2023-05-16T12:15:56;20.30;99.90
37002;DHT22;22913;51.910;8.374;2023-05-16T12:18:43;20.40;99.90
37002;DHT22;22913;51.910;8.374;2023-05-16T12:21:29;20.60;99.90
37002;DHT22;22913;51.910;8.374;2023-05-16T12:24:14;20.60;99.90
37002;DHT22;22913;51.910;8.374;2023-05-16T12:27:00;20.40;99.90
37002;DHT22;22913;51.910;8.374;2023-05-16T12:29:46;20.00;99.90
37002;DHT22;22913;51.910;8.374;2023-05-16T12:32:35;20.20;99.90
37002;DHT22;22913;51.910;8.374;2023-05-16T12:35:21;20.70;99.90
37002;DHT22;22913;51.910;8.374;2023-05-16T12:38:07;21.00;98.60
37002;DHT22;22913;51.910;8.374;2023-05-16T12:40:56;21.40;98.20
37002;DHT22;22913;51.910;8.374;2023-05-16T12:43:41;21.70;95.70
37002;DHT22;22913;51.910;8.374;2023-05-16T12:46:27;21.50;95.00
37002;DHT22;22913;51.910;8.374;2023-05-16T12:49:14;21.40;94.60
37002;DHT22;22913;51.910;8.374;2023-05-16T12:52:01;21.00;94.20
37002;DHT22;22913;51.910;8.374;2023-05-16T12:54:48;20.40;94.60
37002;DHT22;22913;51.910;8.374;2023-05-16T12:57:34;20.00;95.70
37002;DHT22;22913;51.910;8.374;2023-05-16T13:00:20;19.90;96.40
37002;DHT22;22913;51.910;8.374;2023-05-16T13:03:06;20.20;96.90
37002;DHT22;22913;51.910;8.374;2023-05-16T13:05:51;20.50;96.60
37002;DHT22;22913;51.910;8.374;2023-05-16T13:08:38;20.80;96.10
37002;DHT22;22913;51.910;8.374;2023-05-16T13:11:23;20.60;96.00
37002;DHT22;22913;51.910;8.374;2023-05-16T13:14:09;20.60;96.60
37002;DHT22;22913;51.910;8.374;2023-05-16T13:16:55;20.40;97.10
37002;DHT22;22913;51.910;8.374;2023-05-16T13:19:40;20.20;96.90
37002;DHT22;22913;51.910;8.374;2023-05-16T13:22:25;20.40;97.40
37002;DHT22;22913;51.910;8.374;2023-05-16T13:25:12;20.80;96.50
37002;DHT22;22913;51.910;8.374;2023-05-16T13:27:57;20.80;96.10
37002;DHT22;22913;51.910;8.374;2023-05-16T13:30:42;20.70;96.10
37002;DHT22;22913;51.910;8.374;2023-05-16T13:33:27;20.40;96.60
37002;DHT22;22913;51.910;8.374;2023-05-16T13:36:13;20.10;97.60
37002;DHT22;22913;51.910;8.374;2023-05-16T13:38:58;19.80;98.70
37002;DHT22;22913;51.910;8.374;2023-05-16T13:41:45;19.60;99.00
37002;DHT22;22913;51.910;8.374;2023-05-16T13:44:31;19.80;99.60
37002;DHT22;22913;51.910;8.374;2023-05-16T13:47:16;20.10;99.60
37002;DHT22;22913;51.910;8.374;2023-05-16T13:50:02;20.50;99.00
37002;DHT22;22913;51.910;8.374;2023-05-16T13:52:52;21.00;98.30
37002;DHT22;22913;51.910;8.374;2023-05-16T13:55:39;21.80;96.70
37002;DHT22;22913;51.910;8.374;2023-05-16T13:58:25;22.50;93.80
37002;DHT22;22913;51.910;8.374;2023-05-16T14:01:11;22.70;92.20
37002;DHT22;22913;51.910;8.374;2023-05-16T14:03:57;22.60;93.00
37002;DHT22;22913;51.910;8.374;2023-05-16T14:06:44;22.30;93.00
37002;DHT22;22913;51.910;8.374;2023-05-16T14:09:29;22.20;92.70
37002;DHT22;22913;51.910;8.374;2023-05-16T14:12:17;22.10;92.60
37002;DHT22;22913;51.910;8.374;2023-05-16T14:15:05;22.30;91.20
37002;DHT22;22913;51.910;8.374;2023-05-16T14:17:50;22.70;90.00
37002;DHT22;22913;51.910;8.374;2023-05-16T14:20:35;23.00;88.70
37002;DHT22;22913;51.910;8.374;2023-05-16T14:23:21;22.60;90.00
37002;DHT22;22913;51.910;8.374;2023-05-16T14:26:06;22.40;90.80
37002;DHT22;22913;51.910;8.374;2023-05-16T14:28:52;22.00;91.50
37002;DHT22;22913;51.910;8.374;2023-05-16T14:31:40;21.70;91.80
37002;DHT22;22913;51.910;8.374;2023-05-16T14:34:25;21.40;92.00
37002;DHT22;22913;51.910;8.374;2023-05-16T14:37:11;21.00;93.10
37002;DHT22;22913;51.910;8.374;2023-05-16T14:39:57;20.80;93.70
37002;DHT22;22913;51.910;8.374;2023-05-16T14:42:43;20.80;94.60
37002;DHT22;22913;51.910;8.374;2023-05-16T14:45:28;21.20;95.10
37002;DHT22;22913;51.910;8.374;2023-05-16T14:48:15;21.90;94.20
37002;DHT22;22913;51.910;8.374;2023-05-16T14:51:01;22.60;93.30
37002;DHT22;22913;51.910;8.374;2023-05-16T14:53:46;23.00;92.60
37002;DHT22;22913;51.910;8.374;2023-05-16T14:56:31;23.40;91.90
37002;DHT22;22913;51.910;8.374;2023-05-16T14:59:16;23.80;91.40
37002;DHT22;22913;51.910;8.374;2023-05-16T15:02:02;23.80;90.20
37002;DHT22;22913;51.910;8.374;2023-05-16T15:04:49;23.70;90.30
37002;DHT22;22913;51.910;8.374;2023-05-16T15:07:34;23.80;89.90
37002;DHT22;22913;51.910;8.374;2023-05-16T15:10:19;23.30;89.80
37002;DHT22;22913;51.910;8.374;2023-05-16T15:13:04;22.90;90.50
37002;DHT22;22913;51.910;8.374;2023-05-16T15:15:49;22.70;90.50
37002;DHT22;22913;51.910;8.374;2023-05-16T15:18:35;22.40;90.80
37002;DHT22;22913;51.910;8.374;2023-05-16T15:21:21;22.00;90.90
37002;DHT22;22913;51.910;8.374;2023-05-16T15:24:07;21.70;91.50
37002;DHT22;22913;51.910;8.374;2023-05-16T15:26:52;21.40;91.80
37002;DHT22;22913;51.910;8.374;2023-05-16T15:29:38;21.20;91.90
37002;DHT22;22913;51.910;8.374;2023-05-16T15:32:23;21.00;91.70
37002;DHT22;22913;51.910;8.374;2023-05-16T15:35:08;20.80;91.90
37002;DHT22;22913;51.910;8.374;2023-05-16T15:37:55;20.60;91.80
37002;DHT22;22913;51.910;8.374;2023-05-16T15:40:43;20.20;92.50
37002;DHT22;22913;51.910;8.374;2023-05-16T15:43:28;19.90;93.00
37002;DHT22;22913;51.910;8.374;2023-05-16T15:46:13;19.70;93.20
37002;DHT22;22913;51.910;8.374;2023-05-16T15:49:00;19.60;93.30
37002;DHT22;22913;51.910;8.374;2023-05-16T15:51:45;19.80;93.40
37002;DHT22;22913;51.910;8.374;2023-05-16T15:54:32;19.70;93.80
37002;DHT22;22913;51.910;8.374;2023-05-16T15:57:18;19.70;94.00
37002;DHT22;22913;51.910;8.374;2023-05-16T16:00:04;19.60;94.50
37002;DHT22;22913;51.910;8.374;2023-05-16T16:02:50;19.60;94.50
37002;DHT22;22913;51.910;8.374;2023-05-16T16:05:36;19.50;94.80
37002;DHT22;22913;51.910;8.374;2023-05-16T16:08:21;19.40;94.90
37002;DHT22;22913;51.910;8.374;2023-05-16T16:11:08;19.40;95.30
37002;DHT22;22913;51.910;8.374;2023-05-16T16:13:54;19.20;94.80
37002;DHT22;22913;51.910;8.374;2023-05-16T16:16:39;19.20;94.70
37002;DHT22;22913;51.910;8.374;2023-05-16T16:19:25;19.20;94.90
37002;DHT22;22913;51.910;8.374;2023-05-16T16:22:11;19.20;94.90
37002;DHT22;22913;51.910;8.374;2023-05-16T16:24:56;19.20;94.90
37002;DHT22;22913;51.910;8.374;2023-05-16T16:27:43;19.20;95.20
37002;DHT22;22913;51.910;8.374;2023-05-16T16:30:29;19.10;95.30
37002;DHT22;22913;51.910;8.374;2023-05-16T16:33:14;19.00;95.30
37002;DHT22;22913;51.910;8.374;2023-05-16T16:36:00;18.60;95.30
37002;DHT22;22913;51.910;8.374;2023-05-16T16:38:45;18.30;95.40
37002;DHT22;22913;51.910;8.374;2023-05-16T16:41:30;18.20;95.80
37002;DHT22;22913;51.910;8.374;2023-05-16T16:44:17;18.20;96.10
37002;DHT22;22913;51.910;8.374;2023-05-16T16:47:03;18.10;96.80
37002;DHT22;22913;51.910;8.374;2023-05-16T16:49:48;18.00;97.20
37002;DHT22;22913;51.910;8.374;2023-05-16T16:52:34;18.00;97.60
37002;DHT22;22913;51.910;8.374;2023-05-16T16:55:20;17.90;97.40
37002;DHT22;22913;51.910;8.374;2023-05-16T16:58:05;17.80;97.10
37002;DHT22;22913;51.910;8.374;2023-05-16T17:00:52;17.70;96.60
37002;DHT22;22913;51.910;8.374;2023-05-16T17:03:38;17.60;97.10
37002;DHT22;22913;51.910;8.374;2023-05-16T17:06:23;17.50;97.50
37002;DHT22;22913;51.910;8.374;2023-05-16T17:09:08;17.20;98.10
37002;DHT22;22913;51.910;8.374;2023-05-16T17:11:56;16.70;98.80
37002;DHT22;22913;51.910;8.374;2023-05-16T17:14:47;16.50;99.70
37002;DHT22;22913;51.910;8.374;2023-05-16T17:17:34;16.30;99.90
37002;DHT22;22913;51.910;8.374;2023-05-16T17:20:19;16.00;99.90
37002;DHT22;22913;51.910;8.374;2023-05-16T17:23:04;15.60;99.90
37002;DHT22;22913;51.910;8.374;2023-05-16T17:25:50;15.60;99.90
37002;DHT22;22913;51.910;8.374;2023-05-16T17:28:35;15.50;99.90
37002;DHT22;22913;51.910;8.374;2023-05-16T17:31:21;15.40;99.90